KQND

Camp Nothing Hil

Camp Nothing Hil,
METAR KQND 181256Z AUTO 29005KT 9999 FEW036 SCT043 BKN049 33/23 A2988 RMK AO2 SLPNO WND DATA ESTMD T03280231
Observed Flight Rules
Aug-18 @ 12:56 UTC (2 hours ago) Visual Flight Rules
Wind Visibility Clouds
290° at 5 knots 10,000+ meters
  • Few at 3,600' AGL
  • Scattered at 4,300' AGL
  • Broken at 4,900' AGL
Temperatures Readings
Current 33°C / 91°F
Dewpoint 23°C / 73°F
Humidity 56%
Altimeter 29.88" Hg
Pressure 1012 hPa
METAR KQND 181256Z AUTO 29005KT 9999 FEW036 SCT043 BKN049 33/23 A2988 RMK AO2 SLPNO WND DATA ESTMD T03280231
Observed Flight Rules
Aug-18 @ 12:56 UTC
(2 hours ago)
VFR
Wind Visibility
290° at 5 knots 10,000+ meters
Clouds
  • Few at 3,600' AGL
  • Scattered at 4,300' AGL
  • Broken at 4,900' AGL
Temperature Dewpoint
33°C / 91°F 23°C / 73°F
Humidity Altimeter Pressure
56% 29.88" Hg 1012 hPa